Time;durP1;ratioP1;P1;durP2;ratioP2;P2;SDS_P1;SDS_P2;PMS_P1;PMS_P2;Temp;Humidity;BMP_temperature;BMP_pressure;BME280_temperature;BME280_humidity;BME280_pressure;Samples;Min_cycle;Max_cycle;Signal;HPM_P1;HPM_P2
2023/09/10 00:02:36;;;;;;;5.28;3.15;;;;;;;;;;5817214;28;20133;-76
2023/09/10 00:05:27;;;;;;;8.75;2.67;;;;;;;;;;5818274;28;20125;-76
2023/09/10 00:08:18;;;;;;;5.90;3.30;;;;;;;;;;5818370;28;20042;-75
2023/09/10 00:11:08;;;;;;;6.80;4.03;;;;;;;;;;5818608;28;20108;-75
2023/09/10 00:13:59;;;;;;;5.30;3.15;;;;;;;;;;5819133;28;20069;-77
2023/09/10 00:16:50;;;;;;;7.15;3.53;;;;;;;;;;5818580;28;20184;-75
2023/09/10 00:19:41;;;;;;;3.95;3.45;;;;;;;;;;5818538;28;20062;-75
2023/09/10 00:22:32;;;;;;;6.00;3.22;;;;;;;;;;5817126;28;20054;-77
2023/09/10 00:25:23;;;;;;;4.25;3.45;;;;;;;;;;5818506;28;20046;-76
2023/09/10 00:28:14;;;;;;;5.68;2.83;;;;;;;;;;5818333;28;20045;-75
2023/09/10 00:31:04;;;;;;;7.82;4.18;;;;;;;;;;5816865;28;20044;-76
2023/09/10 00:33:55;;;;;;;10.73;4.28;;;;;;;;;;5818893;28;20126;-75
2023/09/10 00:36:46;;;;;;;5.22;4.03;;;;;;;;;;5817007;28;20531;-75
2023/09/10 00:39:37;;;;;;;5.65;3.28;;;;;;;;;;5818153;28;20046;-75
2023/09/10 00:42:28;;;;;;;5.25;3.83;;;;;;;;;;5818082;28;20045;-76
2023/09/10 00:45:19;;;;;;;4.22;2.75;;;;;;;;;;5818243;28;20047;-75
2023/09/10 00:48:09;;;;;;;5.10;3.88;;;;;;;;;;5818127;28;20046;-76
2023/09/10 00:51:00;;;;;;;5.78;3.95;;;;;;;;;;5818416;28;20042;-75
2023/09/10 00:53:52;;;;;;;4.97;4.10;;;;;;;;;;5818262;28;20042;-75
2023/09/10 00:56:43;;;;;;;8.07;3.72;;;;;;;;;;5816622;28;20413;-75
2023/09/10 00:59:34;;;;;;;7.15;4.40;;;;;;;;;;5816735;28;20049;-75
2023/09/10 01:02:26;;;;;;;5.03;3.70;;;;;;;;;;5816417;28;20053;-75
2023/09/10 01:05:18;;;;;;;10.38;3.35;;;;;;;;;;5816657;28;20058;-76
2023/09/10 01:08:09;;;;;;;4.75;3.20;;;;;;;;;;5817595;28;20057;-76
2023/09/10 01:11:45;;;;;;;4.55;2.70;;;;;;;;;;5818264;28;20057;-76
2023/09/10 01:14:44;;;;;;;3.15;2.75;;;;;;;;;;5817686;28;20050;-75
2023/09/10 01:17:47;;;;;;;5.70;3.03;;;;;;;;;;5821438;28;20054;-75
2023/09/10 01:21:17;;;;;;;4.68;3.30;;;;;;;;;;5820657;28;20363;-75
2023/09/10 01:24:43;;;;;;;5.63;2.45;;;;;;;;;;5820304;28;20061;-76
2023/09/10 01:27:33;;;;;;;7.57;3.45;;;;;;;;;;5820457;28;20050;-75
2023/09/10 01:30:24;;;;;;;3.33;2.53;;;;;;;;;;5821608;28;20056;-76
2023/09/10 01:33:35;;;;;;;3.90;2.88;;;;;;;;;;5821616;28;20054;-75
2023/09/10 01:36:38;;;;;;;4.65;2.88;;;;;;;;;;5820246;28;20049;-75
2023/09/10 01:39:36;;;;;;;6.78;3.50;;;;;;;;;;5820331;28;20054;-75
2023/09/10 01:42:27;;;;;;;3.65;3.13;;;;;;;;;;5820221;28;20126;-75
2023/09/10 01:45:18;;;;;;;7.15;4.25;;;;;;;;;;5821497;28;20050;-75
2023/09/10 01:48:09;;;;;;;5.15;3.10;;;;;;;;;;5821202;28;20061;-76
2023/09/10 01:51:00;;;;;;;5.38;3.10;;;;;;;;;;5820427;28;20120;-76
2023/09/10 01:53:51;;;;;;;6.20;3.58;;;;;;;;;;5821432;28;20069;-76
2023/09/10 01:56:41;;;;;;;5.28;3.83;;;;;;;;;;5821263;28;20046;-75
2023/09/10 01:59:32;;;;;;;6.72;4.78;;;;;;;;;;5819513;28;20053;-77
2023/09/10 02:02:23;;;;;;;4.88;3.45;;;;;;;;;;5820774;28;20050;-75
2023/09/10 02:05:16;;;;;;;5.72;3.45;;;;;;;;;;5819656;28;20042;-75
2023/09/10 02:08:07;;;;;;;5.38;4.00;;;;;;;;;;5820699;28;20045;-76
2023/09/10 02:10:57;;;;;;;5.55;3.88;;;;;;;;;;5821091;28;20046;-76
2023/09/10 02:13:48;;;;;;;7.93;4.53;;;;;;;;;;5821080;28;20524;-75
2023/09/10 02:16:39;;;;;;;4.82;3.50;;;;;;;;;;5820833;28;20050;-75
2023/09/10 02:19:30;;;;;;;7.60;4.07;;;;;;;;;;5819440;28;20097;-76
2023/09/10 02:22:21;;;;;;;6.60;3.40;;;;;;;;;;5820487;28;20428;-76
2023/09/10 02:25:12;;;;;;;4.18;3.08;;;;;;;;;;5820808;28;20042;-74
2023/09/10 02:28:04;;;;;;;5.95;3.60;;;;;;;;;;5820201;28;20060;-75
2023/09/10 02:30:55;;;;;;;4.63;3.30;;;;;;;;;;5820695;28;20042;-75
2023/09/10 02:33:46;;;;;;;4.35;2.97;;;;;;;;;;5820404;28;20050;-75
2023/09/10 02:36:36;;;;;;;3.70;3.10;;;;;;;;;;5820208;28;20478;-76
2023/09/10 02:39:27;;;;;;;6.10;4.00;;;;;;;;;;5820344;28;20038;-76
2023/09/10 02:42:18;;;;;;;4.63;2.95;;;;;;;;;;5819969;28;20053;-75
2023/09/10 02:45:09;;;;;;;5.38;3.92;;;;;;;;;;5818868;28;20042;-75
2023/09/10 02:48:00;;;;;;;16.52;3.00;;;;;;;;;;5820754;28;20074;-75
2023/09/10 02:50:50;;;;;;;7.75;3.67;;;;;;;;;;5820104;28;20042;-77
2023/09/10 02:53:41;;;;;;;9.55;3.97;;;;;;;;;;5819977;28;20624;-75
2023/09/10 02:56:32;;;;;;;7.47;3.83;;;;;;;;;;5819673;28;20137;-75
2023/09/10 02:59:27;;;;;;;4.60;4.10;;;;;;;;;;5819765;28;20046;-76
2023/09/10 03:02:17;;;;;;;5.90;2.92;;;;;;;;;;5819411;28;20388;-75
2023/09/10 03:05:08;;;;;;;4.68;3.90;;;;;;;;;;5819798;28;20474;-76
2023/09/10 03:07:59;;;;;;;6.50;3.65;;;;;;;;;;5818509;28;20077;-76
2023/09/10 03:10:50;;;;;;;7.15;3.35;;;;;;;;;;5819648;28;20038;-75
2023/09/10 03:13:41;;;;;;;5.00;3.47;;;;;;;;;;5819764;28;20073;-77
2023/09/10 03:16:33;;;;;;;3.60;2.97;;;;;;;;;;5819437;28;20042;-75
2023/09/10 03:19:24;;;;;;;4.50;3.28;;;;;;;;;;5818059;28;20049;-75
2023/09/10 03:22:14;;;;;;;3.85;2.42;;;;;;;;;;5818915;28;20053;-76
2023/09/10 03:25:06;;;;;;;5.95;3.55;;;;;;;;;;5819572;28;20039;-76
2023/09/10 03:27:57;;;;;;;4.07;3.28;;;;;;;;;;5819667;28;20383;-75
2023/09/10 03:30:47;;;;;;;6.13;2.78;;;;;;;;;;5819248;28;20053;-75
2023/09/10 03:33:40;;;;;;;4.30;3.17;;;;;;;;;;5819038;28;20414;-77
2023/09/10 03:36:31;;;;;;;5.47;4.05;;;;;;;;;;5818956;28;20054;-75
2023/09/10 03:39:22;;;;;;;5.68;4.07;;;;;;;;;;5817304;28;20046;-75
2023/09/10 03:42:12;;;;;;;10.82;3.05;;;;;;;;;;5818891;28;20525;-75
2023/09/10 03:45:04;;;;;;;7.45;3.95;;;;;;;;;;5817615;28;20046;-76
2023/09/10 03:47:55;;;;;;;9.13;2.88;;;;;;;;;;5819330;28;20050;-75
2023/09/10 03:50:45;;;;;;;4.28;3.22;;;;;;;;;;5818755;28;20069;-76
2023/09/10 03:53:36;;;;;;;5.18;2.45;;;;;;;;;;5818420;28;20046;-76
2023/09/10 03:56:27;;;;;;;5.82;3.53;;;;;;;;;;5817540;28;20050;-75
2023/09/10 03:59:18;;;;;;;4.60;2.65;;;;;;;;;;5810733;28;20532;-74
2023/09/10 04:02:11;;;;;;;4.25;2.50;;;;;;;;;;5817738;28;20394;-75
2023/09/10 04:05:02;;;;;;;6.45;3.05;;;;;;;;;;5800935;28;20046;-75
2023/09/10 04:07:53;;;;;;;5.28;4.20;;;;;;;;;;5817408;28;20125;-75
2023/09/10 04:10:47;;;;;;;4.40;3.50;;;;;;;;;;5818630;28;20046;-75
2023/09/10 04:13:38;;;;;;;5.28;3.38;;;;;;;;;;5833356;28;20136;-75
2023/09/10 04:16:29;;;;;;;3.40;2.42;;;;;;;;;;5818508;28;20505;-75
2023/09/10 04:19:21;;;;;;;3.55;2.58;;;;;;;;;;5818469;28;20137;-77
2023/09/10 04:22:12;;;;;;;2.40;2.20;;;;;;;;;;5816890;28;20045;-75
2023/09/10 04:25:03;;;;;;;3.95;2.95;;;;;;;;;;5818393;28;20054;-76
2023/09/10 04:27:53;;;;;;;5.97;3.70;;;;;;;;;;5818802;28;20061;-75
2023/09/10 04:30:44;;;;;;;3.33;2.28;;;;;;;;;;5818321;28;20042;-76
2023/09/10 04:33:35;;;;;;;6.13;2.75;;;;;;;;;;5818283;28;20189;-75
2023/09/10 04:36:26;;;;;;;2.90;2.38;;;;;;;;;;5818159;28;20057;-75
2023/09/10 04:39:17;;;;;;;2.90;2.38;;;;;;;;;;5817038;28;20062;-76
2023/09/10 04:42:08;;;;;;;5.10;3.50;;;;;;;;;;5818009;28;20078;-76
2023/09/10 04:44:59;;;;;;;3.90;3.15;;;;;;;;;;5817270;28;20050;-78
2023/09/10 04:47:50;;;;;;;2.88;2.42;;;;;;;;;;5818338;28;20137;-76
2023/09/10 04:50:40;;;;;;;3.90;2.60;;;;;;;;;;5818987;28;20070;-74
2023/09/10 04:53:31;;;;;;;7.82;3.55;;;;;;;;;;5822347;28;20535;-78
2023/09/10 04:56:22;;;;;;;3.90;2.85;;;;;;;;;;5822301;28;20461;-76
2023/09/10 04:59:13;;;;;;;4.85;3.45;;;;;;;;;;5816303;28;20473;-74
2023/09/10 05:02:05;;;;;;;5.85;3.78;;;;;;;;;;5822232;28;20049;-75
2023/09/10 05:04:56;;;;;;;3.55;3.10;;;;;;;;;;5822611;28;20466;-75
2023/09/10 05:07:49;;;;;;;5.43;2.47;;;;;;;;;;5821941;28;20497;-75
2023/09/10 05:10:39;;;;;;;3.03;2.72;;;;;;;;;;5821971;28;20058;-76
2023/09/10 05:13:30;;;;;;;5.75;3.60;;;;;;;;;;5821691;28;20053;-75
2023/09/10 05:16:21;;;;;;;4.63;2.88;;;;;;;;;;5820489;28;20049;-74
2023/09/10 05:19:12;;;;;;;5.72;3.60;;;;;;;;;;5820637;28;20175;-76
2023/09/10 05:22:03;;;;;;;6.45;4.00;;;;;;;;;;5821845;28;20053;-75
2023/09/10 05:24:54;;;;;;;4.00;2.72;;;;;;;;;;5822156;28;20042;-76
2023/09/10 05:27:47;;;;;;;5.30;4.05;;;;;;;;;;5821524;28;20146;-75
2023/09/10 05:30:38;;;;;;;5.10;3.65;;;;;;;;;;5821822;28;20429;-76
2023/09/10 05:33:28;;;;;;;2.95;2.42;;;;;;;;;;5821635;28;20501;-77
2023/09/10 05:36:19;;;;;;;4.20;3.30;;;;;;;;;;5819279;28;20043;-75
2023/09/10 05:39:13;;;;;;;9.25;3.05;;;;;;;;;;5820714;28;20089;-77
2023/09/10 05:42:04;;;;;;;4.93;3.50;;;;;;;;;;5820680;28;20089;-75
2023/09/10 05:44:54;;;;;;;5.07;3.35;;;;;;;;;;5818621;28;20038;-75
2023/09/10 05:47:45;;;;;;;3.00;2.70;;;;;;;;;;5819505;28;20046;-75
2023/09/10 05:50:39;;;;;;;2.70;2.40;;;;;;;;;;5820248;28;20046;-75
2023/09/10 05:53:30;;;;;;;10.77;4.43;;;;;;;;;;5820173;28;20049;-76
2023/09/10 05:56:21;;;;;;;4.25;3.28;;;;;;;;;;5820072;28;20054;-76
2023/09/10 05:59:12;;;;;;;5.88;3.15;;;;;;;;;;5820180;28;20089;-76
2023/09/10 06:02:03;;;;;;;3.92;3.45;;;;;;;;;;5819796;28;20050;-75
2023/09/10 06:04:54;;;;;;;3.78;3.10;;;;;;;;;;5820342;28;20185;-75
2023/09/10 06:07:45;;;;;;;4.38;2.47;;;;;;;;;;5818358;28;20038;-75
2023/09/10 06:10:36;;;;;;;6.32;3.35;;;;;;;;;;5819791;28;20042;-76
2023/09/10 06:13:28;;;;;;;5.07;3.00;;;;;;;;;;5819706;28;20049;-75
2023/09/10 06:16:18;;;;;;;4.60;3.58;;;;;;;;;;5819816;28;20121;-76
2023/09/10 06:19:09;;;;;;;3.67;2.88;;;;;;;;;;5818228;28;20129;-77
2023/09/10 06:22:00;;;;;;;3.50;2.83;;;;;;;;;;5819885;28;20042;-75
2023/09/10 06:24:51;;;;;;;5.15;3.80;;;;;;;;;;5819476;28;20049;-76
2023/09/10 06:27:41;;;;;;;4.35;3.13;;;;;;;;;;5819109;28;20042;-75
2023/09/10 06:30:32;;;;;;;4.25;3.08;;;;;;;;;;5819525;28;20042;-76
2023/09/10 06:33:23;;;;;;;3.78;2.55;;;;;;;;;;5819289;28;20072;-76
2023/09/10 06:36:15;;;;;;;5.43;3.40;;;;;;;;;;5819251;28;20124;-76
2023/09/10 06:39:06;;;;;;;3.80;2.65;;;;;;;;;;5817887;28;20049;-76
2023/09/10 06:41:56;;;;;;;3.05;2.38;;;;;;;;;;5818384;28;20455;-75
2023/09/10 06:44:47;;;;;;;7.00;3.88;;;;;;;;;;5819224;28;20034;-76
2023/09/10 06:47:38;;;;;;;4.85;3.42;;;;;;;;;;5818800;28;20248;-76
2023/09/10 06:50:29;;;;;;;6.45;2.63;;;;;;;;;;5816142;28;20137;-76
2023/09/10 06:53:19;;;;;;;5.13;2.38;;;;;;;;;;5817788;28;20053;-76
2023/09/10 06:56:10;;;;;;;6.28;2.65;;;;;;;;;;5812805;28;20140;-76
2023/09/10 06:59:01;;;;;;;3.30;2.45;;;;;;;;;;5818666;28;20038;-75
2023/09/10 07:01:52;;;;;;;4.97;1.83;;;;;;;;;;5815139;28;20053;-77
2023/09/10 07:04:47;;;;;;;12.88;3.17;;;;;;;;;;5818644;28;20042;-76
2023/09/10 07:07:38;;;;;;;2.67;1.85;;;;;;;;;;5818016;28;20042;-77
2023/09/10 07:10:29;;;;;;;3.28;2.25;;;;;;;;;;5818492;28;20047;-75
2023/09/10 07:13:20;;;;;;;4.65;2.30;;;;;;;;;;5817761;28;20054;-76
2023/09/10 07:16:10;;;;;;;4.32;3.03;;;;;;;;;;5818486;28;20054;-76
2023/09/10 07:19:01;;;;;;;9.13;3.10;;;;;;;;;;5818967;28;20054;-75
2023/09/10 07:21:52;;;;;;;3.97;2.38;;;;;;;;;;5817128;28;20065;-76
2023/09/10 07:24:43;;;;;;;3.55;2.13;;;;;;;;;;5817821;28;20532;-76
2023/09/10 07:27:33;;;;;;;3.83;2.63;;;;;;;;;;5814892;28;20348;-75
2023/09/10 07:30:24;;;;;;;1.98;1.35;;;;;;;;;;5816682;28;20500;-75
2023/09/10 07:33:15;;;;;;;3.22;2.13;;;;;;;;;;5813199;28;20042;-76
2023/09/10 07:36:06;;;;;;;4.75;1.75;;;;;;;;;;5814662;28;20082;-75
2023/09/10 07:38:57;;;;;;;2.72;1.73;;;;;;;;;;5818414;28;20042;-75
2023/09/10 07:41:47;;;;;;;3.90;2.38;;;;;;;;;;5815666;28;20046;-75
2023/09/10 07:44:40;;;;;;;3.80;2.42;;;;;;;;;;5814609;28;20079;-76
2023/09/10 07:47:32;;;;;;;2.22;1.65;;;;;;;;;;5814413;28;20065;-75
2023/09/10 07:50:22;;;;;;;3.88;2.17;;;;;;;;;;5815953;28;20410;-75
2023/09/10 07:53:13;;;;;;;3.85;2.10;;;;;;;;;;5807851;28;20137;-76
2023/09/10 07:56:04;;;;;;;3.90;2.15;;;;;;;;;;5810380;28;20130;-75
2023/09/10 07:58:55;;;;;;;3.03;1.80;;;;;;;;;;5817783;28;20034;-76
2023/09/10 08:01:46;;;;;;;4.70;2.40;;;;;;;;;;5812068;28;20060;-76
2023/09/10 08:04:36;;;;;;;3.13;1.83;;;;;;;;;;5814190;28;20050;-75
2023/09/10 08:07:27;;;;;;;3.55;2.05;;;;;;;;;;5816958;28;20049;-76
2023/09/10 08:10:18;;;;;;;2.90;1.80;;;;;;;;;;5817650;28;20050;-76
2023/09/10 08:13:09;;;;;;;2.72;2.20;;;;;;;;;;5815073;28;20041;-75
2023/09/10 08:15:59;;;;;;;3.20;1.85;;;;;;;;;;5789684;28;20486;-77
2023/09/10 08:18:50;;;;;;;3.90;2.55;;;;;;;;;;5817999;28;20045;-75
2023/09/10 08:21:42;;;;;;;8.50;1.83;;;;;;;;;;5815670;28;20050;-76
2023/09/10 08:24:32;;;;;;;4.80;2.30;;;;;;;;;;5817026;28;20046;-76
2023/09/10 08:27:23;;;;;;;5.55;2.75;;;;;;;;;;5821703;28;20051;-75
2023/09/10 08:30:14;;;;;;;2.75;1.95;;;;;;;;;;5820196;28;20050;-75
2023/09/10 08:33:05;;;;;;;3.40;1.95;;;;;;;;;;5821745;28;20050;-76
2023/09/10 08:35:56;;;;;;;3.20;1.80;;;;;;;;;;5814062;28;20045;-76
2023/09/10 08:38:46;;;;;;;3.25;2.10;;;;;;;;;;5799458;28;20039;-81
2023/09/10 08:41:49;;;;;;;7.60;2.60;;;;;;;;;;5818185;28;20046;-76
2023/09/10 08:44:44;;;;;;;6.20;2.20;;;;;;;;;;5797896;28;20054;-75
2023/09/10 08:47:39;;;;;;;4.47;2.92;;;;;;;;;;5815980;28;20050;-77
2023/09/10 08:50:32;;;;;;;5.70;2.03;;;;;;;;;;5818509;28;20054;-76
2023/09/10 08:53:23;;;;;;;2.97;2.30;;;;;;;;;;5818562;28;20049;-77
2023/09/10 08:56:14;;;;;;;6.32;2.50;;;;;;;;;;5820887;28;20042;-76
2023/09/10 08:59:07;;;;;;;4.05;2.78;;;;;;;;;;5820201;28;20050;-76
2023/09/10 09:01:58;;;;;;;2.30;1.48;;;;;;;;;;5820972;28;20466;-76
2023/09/10 09:04:49;;;;;;;3.55;1.90;;;;;;;;;;5821920;28;20065;-75
2023/09/10 09:07:54;;;;;;;3.08;2.05;;;;;;;;;;5820111;28;20050;-75
2023/09/10 09:10:46;;;;;;;2.55;2.00;;;;;;;;;;5817653;28;20482;-75
2023/09/10 09:13:47;;;;;;;3.95;2.22;;;;;;;;;;5821084;28;20417;-76
2023/09/10 09:16:40;;;;;;;3.30;2.08;;;;;;;;;;5798890;28;20520;-75
2023/09/10 09:19:35;;;;;;;4.35;2.08;;;;;;;;;;5818978;28;20150;-77
2023/09/10 09:22:29;;;;;;;4.93;1.63;;;;;;;;;;5819538;28;20050;-75
2023/09/10 09:25:20;;;;;;;4.32;1.73;;;;;;;;;;5819962;28;20050;-76
2023/09/10 09:28:12;;;;;;;4.78;2.15;;;;;;;;;;5819635;28;20140;-76
2023/09/10 09:31:10;;;;;;;2.42;1.63;;;;;;;;;;5820652;28;20108;-75
2023/09/10 09:34:02;;;;;;;1.63;1.30;;;;;;;;;;5819275;28;20108;-76
2023/09/10 09:36:53;;;;;;;4.20;1.67;;;;;;;;;;5820097;28;20038;-77
2023/09/10 09:39:45;;;;;;;2.08;1.77;;;;;;;;;;5815693;28;20042;-76
2023/09/10 09:42:37;;;;;;;1.70;1.50;;;;;;;;;;5817333;28;20490;-76
2023/09/10 09:45:29;;;;;;;3.40;1.55;;;;;;;;;;5819266;28;20046;-74
2023/09/10 09:48:20;;;;;;;1.85;1.20;;;;;;;;;;5818545;28;20042;-76
2023/09/10 09:51:14;;;;;;;2.40;1.45;;;;;;;;;;5799475;28;20044;-76
2023/09/10 09:54:08;;;;;;;2.22;1.52;;;;;;;;;;5818073;28;20488;-76
2023/09/10 09:56:59;;;;;;;2.08;1.35;;;;;;;;;;5816919;28;20043;-80
2023/09/10 09:59:50;;;;;;;2.80;1.63;;;;;;;;;;5815917;28;20485;-77
2023/09/10 10:02:42;;;;;;;1.70;1.30;;;;;;;;;;5816826;28;20054;-75
2023/09/10 10:05:33;;;;;;;1.38;0.88;;;;;;;;;;5817072;28;20054;-77
2023/09/10 10:08:28;;;;;;;2.92;1.73;;;;;;;;;;5818036;28;20057;-76
2023/09/10 10:11:31;;;;;;;1.33;0.82;;;;;;;;;;5813121;28;20093;-76
2023/09/10 10:14:22;;;;;;;1.27;0.95;;;;;;;;;;5814802;28;20474;-76
2023/09/10 10:17:16;;;;;;;2.17;1.55;;;;;;;;;;5818279;28;20584;-76
2023/09/10 10:20:08;;;;;;;1.75;1.35;;;;;;;;;;5814010;28;20038;-76
2023/09/10 10:23:00;;;;;;;1.25;0.98;;;;;;;;;;5816856;28;20137;-76
2023/09/10 10:26:10;;;;;;;1.52;1.17;;;;;;;;;;5812616;28;20128;-76
2023/09/10 10:29:01;;;;;;;1.73;1.17;;;;;;;;;;5819331;28;20137;-75
2023/09/10 10:32:01;;;;;;;0.93;0.80;;;;;;;;;;5820164;28;20043;-76
2023/09/10 10:34:59;;;;;;;1.85;1.17;;;;;;;;;;5819777;28;20085;-75
2023/09/10 10:37:59;;;;;;;2.83;1.30;;;;;;;;;;5817912;28;20075;-76
2023/09/10 10:40:53;;;;;;;2.03;1.23;;;;;;;;;;5815934;28;20042;-75
2023/09/10 10:43:52;;;;;;;0.88;0.73;;;;;;;;;;5816195;28;20141;-76
2023/09/10 10:46:44;;;;;;;1.48;1.13;;;;;;;;;;5817711;28;20058;-77
2023/09/10 10:49:37;;;;;;;1.70;1.20;;;;;;;;;;5817964;28;20049;-75
2023/09/10 10:52:31;;;;;;;3.53;1.23;;;;;;;;;;5819177;28;20058;-76
2023/09/10 10:55:24;;;;;;;2.17;1.48;;;;;;;;;;5819221;28;20421;-76
2023/09/10 10:58:15;;;;;;;2.28;1.10;;;;;;;;;;5817182;28;20042;-76
2023/09/10 11:01:06;;;;;;;3.47;1.75;;;;;;;;;;5814663;28;20470;-77
2023/09/10 11:03:57;;;;;;;1.25;0.80;;;;;;;;;;5819462;28;20073;-76
2023/09/10 11:07:15;;;;;;;2.10;1.27;;;;;;;;;;5819190;28;20042;-76
2023/09/10 11:10:25;;;;;;;3.78;1.92;;;;;;;;;;5818832;28;20442;-76
2023/09/10 11:13:16;;;;;;;1.85;0.85;;;;;;;;;;5818795;28;20050;-76
2023/09/10 11:16:07;;;;;;;1.30;0.82;;;;;;;;;;5817583;28;20043;-76
2023/09/10 11:19:00;;;;;;;1.73;1.02;;;;;;;;;;5819458;28;20046;-76
2023/09/10 11:21:54;;;;;;;2.88;1.45;;;;;;;;;;5818765;28;20052;-76
2023/09/10 11:25:08;;;;;;;1.42;1.10;;;;;;;;;;5818559;28;20034;-76
2023/09/10 11:27:59;;;;;;;1.73;1.10;;;;;;;;;;5818841;28;20054;-76
2023/09/10 11:30:50;;;;;;;2.10;1.55;;;;;;;;;;5817681;28;20478;-76
2023/09/10 11:33:40;;;;;;;2.25;1.30;;;;;;;;;;5818182;28;20047;-76
2023/09/10 11:36:35;;;;;;;3.00;1.20;;;;;;;;;;5818360;28;20046;-75
2023/09/10 11:39:26;;;;;;;1.25;1.05;;;;;;;;;;5816218;28;20050;-75
2023/09/10 11:42:17;;;;;;;1.08;0.95;;;;;;;;;;5817428;28;20501;-75
2023/09/10 11:45:11;;;;;;;2.13;1.33;;;;;;;;;;5814083;28;20460;-76
2023/09/10 11:48:01;;;;;;;1.42;1.00;;;;;;;;;;5817147;28;20042;-75
2023/09/10 11:50:55;;;;;;;1.13;0.88;;;;;;;;;;5815049;28;20046;-76
2023/09/10 11:53:46;;;;;;;2.30;1.25;;;;;;;;;;5815353;28;20046;-76
2023/09/10 11:56:37;;;;;;;1.27;0.80;;;;;;;;;;5818100;28;20053;-76
2023/09/10 11:59:32;;;;;;;1.23;1.13;;;;;;;;;;5815476;28;20417;-77
2023/09/10 12:02:24;;;;;;;1.52;1.20;;;;;;;;;;5812119;28;20449;-77
2023/09/10 12:05:15;;;;;;;2.55;1.00;;;;;;;;;;5813207;28;20177;-75
2023/09/10 12:08:05;;;;;;;1.75;1.00;;;;;;;;;;5817843;28;20082;-77
2023/09/10 12:11:03;;;;;;;2.67;1.63;;;;;;;;;;5818453;28;20126;-76
2023/09/10 12:13:54;;;;;;;1.92;1.40;;;;;;;;;;5818179;28;20042;-77
2023/09/10 12:16:46;;;;;;;3.08;1.40;;;;;;;;;;5818030;28;20043;-75
2023/09/10 12:19:37;;;;;;;1.50;1.27;;;;;;;;;;5818052;28;20489;-75
2023/09/10 12:22:28;;;;;;;1.27;1.05;;;;;;;;;;5816555;28;20105;-77
2023/09/10 12:25:19;;;;;;;1.10;0.65;;;;;;;;;;5817182;28;20045;-76
2023/09/10 12:28:11;;;;;;;1.42;0.93;;;;;;;;;;5815739;28;20041;-76
2023/09/10 12:31:02;;;;;;;1.60;0.90;;;;;;;;;;5816330;28;20065;-75
2023/09/10 12:33:53;;;;;;;3.15;1.63;;;;;;;;;;5807054;28;20494;-77
2023/09/10 12:36:45;;;;;;;1.10;0.47;;;;;;;;;;5810332;28;20418;-76
2023/09/10 12:39:35;;;;;;;0.85;0.77;;;;;;;;;;5793824;28;20047;-76
2023/09/10 12:42:28;;;;;;;4.63;1.17;;;;;;;;;;5794998;28;20051;-77
2023/09/10 12:45:20;;;;;;;3.65;1.30;;;;;;;;;;5793799;28;20055;-75
2023/09/10 12:48:11;;;;;;;3.72;2.03;;;;;;;;;;5812778;28;20038;-75
2023/09/10 12:51:03;;;;;;;1.42;0.85;;;;;;;;;;5814596;28;20375;-76
2023/09/10 12:53:53;;;;;;;3.05;0.68;;;;;;;;;;5811863;28;20050;-76
2023/09/10 12:56:49;;;;;;;3.55;1.08;;;;;;;;;;5811864;28;20047;-75
2023/09/10 12:59:39;;;;;;;2.75;0.98;;;;;;;;;;5815692;28;20164;-76
2023/09/10 13:02:32;;;;;;;3.33;1.67;;;;;;;;;;5812635;28;20053;-77
2023/09/10 13:05:23;;;;;;;1.23;1.10;;;;;;;;;;5813070;28;20042;-76
2023/09/10 13:08:14;;;;;;;0.98;0.80;;;;;;;;;;5815789;28;20145;-75
2023/09/10 13:11:05;;;;;;;1.95;1.35;;;;;;;;;;5815224;28;20178;-77
2023/09/10 13:13:57;;;;;;;0.98;0.90;;;;;;;;;;5822091;28;20049;-75
2023/09/10 13:16:48;;;;;;;1.10;1.00;;;;;;;;;;5820808;28;20046;-75
2023/09/10 13:19:39;;;;;;;2.47;1.40;;;;;;;;;;5821626;28;20089;-77
2023/09/10 13:22:29;;;;;;;2.35;0.95;;;;;;;;;;5821343;28;20051;-75
2023/09/10 13:25:20;;;;;;;1.38;1.13;;;;;;;;;;5820360;28;20166;-77
2023/09/10 13:28:11;;;;;;;1.67;1.13;;;;;;;;;;5807025;28;20046;-76
2023/09/10 13:31:02;;;;;;;2.28;1.23;;;;;;;;;;5828531;28;20046;-77
2023/09/10 13:33:53;;;;;;;1.58;1.25;;;;;;;;;;5814923;28;20082;-76
2023/09/10 13:36:43;;;;;;;1.25;1.13;;;;;;;;;;5817436;28;20047;-76
2023/09/10 13:39:34;;;;;;;2.22;1.58;;;;;;;;;;5819846;28;20163;-76
2023/09/10 13:42:25;;;;;;;2.20;1.20;;;;;;;;;;5815780;28;20050;-76
2023/09/10 13:45:19;;;;;;;1.83;1.00;;;;;;;;;;5816856;28;20514;-75
2023/09/10 13:48:09;;;;;;;2.25;1.10;;;;;;;;;;5820667;28;20050;-76
2023/09/10 13:51:00;;;;;;;0.85;0.63;;;;;;;;;;5820696;28;20053;-76
2023/09/10 13:53:51;;;;;;;9.90;1.55;;;;;;;;;;5815151;28;20042;-76
2023/09/10 13:56:42;;;;;;;1.27;0.90;;;;;;;;;;5818230;28;20039;-75
2023/09/10 13:59:32;;;;;;;1.60;1.08;;;;;;;;;;5819912;28;20053;-76
2023/09/10 14:02:23;;;;;;;1.80;0.95;;;;;;;;;;5815781;28;20038;-75
2023/09/10 14:05:14;;;;;;;2.40;1.50;;;;;;;;;;5815558;28;20105;-75
2023/09/10 14:08:05;;;;;;;1.45;1.00;;;;;;;;;;5815622;28;20149;-75
2023/09/10 14:10:56;;;;;;;1.65;1.05;;;;;;;;;;5819133;28;20482;-76
2023/09/10 14:13:47;;;;;;;1.05;0.95;;;;;;;;;;5810727;28;20416;-76
2023/09/10 14:16:38;;;;;;;2.60;1.55;;;;;;;;;;5819932;28;20046;-76
2023/09/10 14:19:29;;;;;;;0.68;0.68;;;;;;;;;;5819380;28;20390;-75
2023/09/10 14:22:20;;;;;;;1.13;0.77;;;;;;;;;;5816406;28;20054;-77
2023/09/10 14:25:15;;;;;;;2.28;0.47;;;;;;;;;;5816502;28;20038;-76
2023/09/10 14:28:06;;;;;;;1.52;1.23;;;;;;;;;;5814494;28;20038;-76
2023/09/10 14:30:57;;;;;;;1.85;1.15;;;;;;;;;;5818820;28;20050;-76
2023/09/10 14:33:47;;;;;;;1.60;1.00;;;;;;;;;;5814453;28;20410;-75
2023/09/10 14:36:38;;;;;;;0.88;0.80;;;;;;;;;;5815922;28;20083;-76
2023/09/10 14:39:29;;;;;;;1.40;0.65;;;;;;;;;;5819105;28;20050;-78
2023/09/10 14:42:20;;;;;;;1.25;0.65;;;;;;;;;;5815644;28;20042;-75
2023/09/10 14:45:11;;;;;;;2.65;1.75;;;;;;;;;;5815767;28;20038;-75
2023/09/10 14:48:03;;;;;;;2.08;0.65;;;;;;;;;;5814744;28;20046;-75
2023/09/10 14:50:54;;;;;;;1.20;0.90;;;;;;;;;;5817692;28;20054;-77
2023/09/10 14:53:45;;;;;;;1.85;0.90;;;;;;;;;;5813249;28;20038;-75
2023/09/10 14:56:35;;;;;;;1.40;0.82;;;;;;;;;;5814684;28;20043;-75
2023/09/10 14:59:26;;;;;;;1.35;0.80;;;;;;;;;;5817961;28;20070;-76
2023/09/10 15:02:17;;;;;;;1.20;0.95;;;;;;;;;;5814358;28;20042;-75
2023/09/10 15:05:11;;;;;;;1.45;0.98;;;;;;;;;;5815525;28;20486;-76
2023/09/10 15:08:03;;;;;;;2.35;1.23;;;;;;;;;;5812875;28;20555;-75
2023/09/10 15:10:54;;;;;;;1.17;0.85;;;;;;;;;;5818301;28;20129;-75
2023/09/10 15:13:45;;;;;;;1.50;0.70;;;;;;;;;;5812796;28;20394;-76
2023/09/10 15:16:36;;;;;;;0.80;0.73;;;;;;;;;;5815128;28;20069;-77
2023/09/10 15:19:29;;;;;;;0.85;0.85;;;;;;;;;;5818341;28;20062;-76
2023/09/10 15:22:19;;;;;;;2.10;1.00;;;;;;;;;;5814949;28;20049;-77
2023/09/10 15:25:10;;;;;;;2.42;1.05;;;;;;;;;;5814881;28;20046;-77
2023/09/10 15:28:01;;;;;;;2.10;1.00;;;;;;;;;;5815081;28;20081;-75
2023/09/10 15:30:52;;;;;;;2.17;0.88;;;;;;;;;;5818081;28;20054;-76
2023/09/10 15:33:42;;;;;;;3.30;0.90;;;;;;;;;;5815160;28;20042;-76
2023/09/10 15:36:35;;;;;;;3.80;1.45;;;;;;;;;;5817712;28;20057;-75
2023/09/10 15:39:26;;;;;;;2.13;1.50;;;;;;;;;;5818337;28;20053;-77
2023/09/10 15:42:17;;;;;;;1.35;1.17;;;;;;;;;;5814569;28;20493;-76
2023/09/10 15:45:08;;;;;;;1.88;0.85;;;;;;;;;;5814000;28;20053;-76
2023/09/10 15:47:59;;;;;;;2.55;1.05;;;;;;;;;;5816954;28;20049;-76
2023/09/10 15:50:50;;;;;;;1.73;0.90;;;;;;;;;;5817974;28;20081;-76
2023/09/10 15:53:41;;;;;;;2.50;1.50;;;;;;;;;;5817580;28;20085;-77
2023/09/10 15:56:33;;;;;;;2.10;0.95;;;;;;;;;;5818155;28;20046;-76
2023/09/10 15:59:24;;;;;;;1.10;0.90;;;;;;;;;;5818605;28;20401;-75
2023/09/10 16:02:26;;;;;;;2.00;1.27;;;;;;;;;;5818439;28;20073;-76
2023/09/10 16:05:17;;;;;;;1.55;1.17;;;;;;;;;;5813734;28;20042;-76
2023/09/10 16:08:08;;;;;;;0.70;0.60;;;;;;;;;;5813777;28;20081;-77
2023/09/10 16:10:59;;;;;;;1.85;1.00;;;;;;;;;;5815889;28;20045;-75
2023/09/10 16:13:49;;;;;;;2.65;1.52;;;;;;;;;;5814728;28;20049;-76
2023/09/10 16:16:40;;;;;;;3.65;1.83;;;;;;;;;;5815326;28;20046;-77
2023/09/10 16:19:32;;;;;;;1.08;0.80;;;;;;;;;;5816042;28;20042;-76
2023/09/10 16:22:31;;;;;;;2.83;1.50;;;;;;;;;;5816004;28;20069;-76
2023/09/10 16:25:22;;;;;;;1.33;1.02;;;;;;;;;;5817977;28;20047;-75
2023/09/10 16:28:13;;;;;;;1.52;1.42;;;;;;;;;;5817775;28;20379;-76
2023/09/10 16:31:04;;;;;;;1.23;1.08;;;;;;;;;;5817761;28;20414;-76
2023/09/10 16:33:54;;;;;;;2.13;1.52;;;;;;;;;;5817228;28;20057;-76
2023/09/10 16:36:45;;;;;;;1.80;1.33;;;;;;;;;;5816502;28;20047;-76
2023/09/10 16:39:36;;;;;;;1.52;1.30;;;;;;;;;;5817901;28;20057;-76
2023/09/10 16:42:26;;;;;;;1.20;1.10;;;;;;;;;;5816429;28;20046;-76
2023/09/10 16:45:17;;;;;;;0.93;0.82;;;;;;;;;;5816353;28;20065;-76
2023/09/10 16:48:08;;;;;;;2.55;1.55;;;;;;;;;;5822063;28;20073;-76
2023/09/10 16:50:59;;;;;;;7.38;1.38;;;;;;;;;;5822505;28;20049;-76
2023/09/10 16:53:49;;;;;;;3.72;1.70;;;;;;;;;;5822596;28;20050;-76
2023/09/10 16:56:40;;;;;;;3.20;0.90;;;;;;;;;;5821520;28;20081;-77
2023/09/10 16:59:31;;;;;;;3.08;2.08;;;;;;;;;;5822180;28;20265;-75
2023/09/10 17:02:22;;;;;;;4.38;1.48;;;;;;;;;;5821692;28;20042;-76
2023/09/10 17:05:13;;;;;;;3.92;1.98;;;;;;;;;;5821644;28;20125;-75
2023/09/10 17:08:04;;;;;;;2.67;1.60;;;;;;;;;;5821616;28;20054;-76
2023/09/10 17:10:56;;;;;;;6.90;2.42;;;;;;;;;;5822113;28;20074;-76
2023/09/10 17:13:47;;;;;;;6.43;2.80;;;;;;;;;;5820744;28;20406;-76